KFBL/FBL METAR and TAF weather

Enter ICAO airport designator
Station Type Date Time Source
KFBL METAR 2021/09/28 04:15 UTC NOAA

KFBL 280415Z AUTO 00000KT 10SM CLR 11/10 A2993 RMK AO2


Station Type Date Time Source
KFBL Decoded METAR 2021/09/28 04:15 UTC NOAA

Faribault, Faribault Municipal Airport, MN, United States (KFBL) 44-20N 093-19W
Sep 28, 2021 - 12:15 AM EDT / 2021.09.28 0415 UTC
Wind: Calm:0
Visibility: 10 mile(s):0
Sky conditions: clear
Temperature: 51 F (11 C)
Dew Point: 50 F (10 C)
Relative Humidity: 93%
Pressure (altimeter): 29.93 in. Hg (1013 hPa)
ob: KFBL 280415Z AUTO 00000KT 10SM CLR 11/10 A2993 RMK AO2
cycle: 4

Station Type Date Time Source
KFBL TAF UTC NOAA

Error!

Example: see airport list